Saint Benedict, Louisiana
Current Conditions -  °F | °C
As of 12:35 PM on Thursday 23 Oct 2014 (Local Time) from KHDC Reporting Station
Clear Clear  
Wind Chill: 73°   Ceiling: Unl
Heat Index: 73°   Visibility: 10mi
Dew Point: 41°   Wind: 0mph
Humidity: 31%   Direction: NA
Pressure: 30.12"   Gusts: NA
Location:  30.53°N, 90.11°W
Report Text: KHDC 231735Z AUTO 00000KT 10SM CLR 23/05 A3012 RMK AO2
Loading
Personal Weather Stations






























Interactive Weather Map New forecast layout! Learn more

10-Day Weather Forecast

Advertisements
Track Severe Weather on mobile